KSCR/SCR METAR and TAF weather

Enter ICAO airport designator
Station Type Date Time Source
KSCR METAR 2021/09/24 00:15 UTC NOAA

KSCR 240015Z AUTO 00000KT 10SM CLR 14/14 A3000 RMK AO2 T01390135


Station Type Date Time Source
KSCR Decoded METAR 2021/09/24 00:15 UTC NOAA

Station name not available
Sep 23, 2021 - 08:15 PM EDT / 2021.09.24 0015 UTC
Wind: Calm:0
Visibility: 10 mile(s):0
Sky conditions: clear
Temperature: 57.0 F (13.9 C)
Dew Point: 56.3 F (13.5 C)
Relative Humidity: 97%
Pressure (altimeter): 30 in. Hg (1015 hPa)
ob: KSCR 240015Z AUTO 00000KT 10SM CLR 14/14 A3000 RMK AO2 T01390135
cycle: 0

Station Type Date Time Source
KSCR TAF UTC NOAA

Error!

Example: see airport list